createdAt,value
2022-09-12T00:04:21.449Z,9.84
2022-09-12T00:09:24.072Z,9.83
2022-09-12T00:14:27.053Z,9.75
2022-09-12T00:19:30.589Z,9.67
2022-09-12T00:24:34.267Z,9.75
2022-09-12T00:29:36.816Z,9.76
2022-09-12T00:34:39.475Z,9.73
2022-09-12T00:39:42.174Z,9.86
2022-09-12T00:44:49.278Z,9.79
2022-09-12T00:50:08.158Z,9.67
2022-09-12T00:55:24.871Z,9.74
2022-09-12T01:00:28.492Z,9.72
2022-09-12T01:05:34.114Z,9.60
2022-09-12T01:10:38.985Z,9.51
2022-09-12T01:15:41.634Z,9.51
2022-09-12T01:21:24.885Z,9.45
2022-09-12T01:27:01.115Z,9.59
2022-09-12T01:32:18.691Z,9.55
2022-09-12T01:37:35.632Z,9.45
2022-09-12T01:43:17.800Z,9.41
2022-09-12T01:48:40.694Z,9.44
2022-09-12T01:53:51.340Z,9.49
2022-09-12T01:59:22.102Z,9.52
2022-09-12T02:04:34.073Z,9.53
2022-09-12T02:09:44.411Z,9.43
2022-09-12T02:14:58.677Z,9.41
2022-09-12T02:20:26.076Z,9.50
2022-09-12T02:25:43.409Z,9.45
2022-09-12T02:31:29.111Z,9.56
2022-09-12T02:36:46.771Z,9.49
2022-09-12T02:41:55.022Z,9.53
2022-09-12T02:47:13.212Z,9.58
2022-09-12T02:52:15.915Z,9.58
2022-09-12T02:57:22.886Z,9.61
2022-09-12T03:03:05.615Z,9.52
2022-09-12T03:08:31.310Z,9.65
2022-09-12T03:13:53.239Z,9.62
2022-09-12T03:19:01.795Z,9.66
2022-09-12T03:24:25.925Z,9.59
2022-09-12T03:29:31.028Z,9.56
2022-09-12T03:34:33.674Z,9.61
2022-09-12T03:39:36.235Z,9.58
2022-09-12T03:44:38.788Z,9.34
2022-09-12T03:49:41.774Z,9.49
2022-09-12T03:54:44.502Z,9.54
2022-09-12T03:59:49.694Z,9.43
2022-09-12T04:04:52.366Z,9.48
2022-09-12T04:09:56.358Z,9.45
2022-09-12T04:14:58.879Z,9.17
2022-09-12T04:20:01.981Z,9.32
2022-09-12T04:25:07.111Z,9.30
2022-09-12T04:30:10.657Z,9.21
2022-09-12T04:35:14.161Z,9.49
2022-09-12T04:40:17.182Z,9.60
2022-09-12T04:45:19.798Z,9.68
2022-09-12T04:50:22.725Z,9.80
2022-09-12T04:55:25.447Z,9.85
2022-09-12T05:00:29.152Z,9.75
2022-09-12T05:05:31.717Z,9.98
2022-09-12T05:10:34.408Z,10.04
2022-09-12T05:15:37.821Z,10.06
2022-09-12T05:20:40.427Z,10.14
2022-09-12T05:25:53.506Z,10.20
2022-09-12T05:31:09.200Z,10.22
2022-09-12T05:36:24.062Z,10.12
2022-09-12T05:41:30.960Z,10.32
2022-09-12T05:46:41.756Z,10.40
2022-09-12T05:51:45.930Z,10.33
2022-09-12T05:56:49.271Z,10.58
2022-09-12T06:01:52.509Z,10.63
2022-09-12T06:06:55.440Z,10.63
2022-09-12T06:11:58.883Z,10.65
2022-09-12T06:17:01.653Z,10.71
2022-09-12T06:22:04.673Z,10.86
2022-09-12T06:27:07.461Z,10.92
2022-09-12T06:32:11.706Z,11.09
2022-09-12T06:37:14.498Z,10.80
2022-09-12T06:42:17.290Z,11.35
2022-09-12T06:47:31.432Z,11.84
2022-09-12T06:52:34.050Z,11.91
2022-09-12T06:57:38.922Z,12.28
2022-09-12T07:02:41.875Z,12.49
2022-09-12T07:07:44.553Z,12.66
2022-09-12T07:12:48.722Z,12.62
2022-09-12T07:17:52.225Z,12.35
2022-09-12T07:22:54.850Z,12.63
2022-09-12T07:27:57.671Z,12.60
2022-09-12T07:33:00.266Z,12.56
2022-09-12T07:38:03.115Z,12.94
2022-09-12T07:43:06.106Z,12.79
2022-09-12T07:48:09.221Z,12.75
2022-09-12T07:53:11.810Z,12.59
2022-09-12T07:58:14.434Z,12.18
2022-09-12T08:03:17.806Z,12.46
2022-09-12T08:08:20.532Z,12.79
2022-09-12T08:13:24.666Z,12.60
2022-09-12T08:18:29.025Z,12.55
2022-09-12T08:23:31.846Z,12.78
2022-09-12T08:28:36.492Z,12.70
2022-09-12T08:33:39.240Z,13.05
2022-09-12T08:38:44.354Z,13.12
2022-09-12T08:43:57.027Z,13.08
2022-09-12T08:49:02.510Z,13.31
2022-09-12T08:54:19.035Z,13.28
2022-09-12T08:59:21.649Z,13.57
2022-09-12T09:04:41.754Z,13.88
2022-09-12T09:09:54.885Z,14.14
2022-09-12T09:15:38.250Z,14.25
2022-09-12T09:20:51.171Z,13.75
2022-09-12T09:26:01.911Z,13.82
2022-09-12T09:31:04.603Z,13.45
2022-09-12T09:36:26.716Z,13.98
2022-09-12T09:41:41.216Z,13.53
2022-09-12T09:46:43.886Z,13.73
2022-09-12T09:51:48.341Z,14.14
2022-09-12T09:56:51.230Z,14.52
2022-09-12T10:02:02.189Z,14.50
2022-09-12T10:07:06.006Z,14.54
2022-09-12T10:12:28.629Z,14.29
2022-09-12T10:17:42.465Z,14.45
2022-09-12T10:22:47.841Z,14.50
2022-09-12T10:27:59.098Z,14.79
2022-09-12T10:33:12.378Z,15.06
2022-09-12T10:38:33.101Z,14.44
2022-09-12T10:43:37.903Z,14.27
2022-09-12T10:48:40.579Z,13.94
2022-09-12T10:53:46.711Z,13.93
2022-09-12T10:59:27.001Z,14.37
2022-09-12T11:04:34.285Z,14.28
2022-09-12T11:09:58.779Z,14.29
2022-09-12T11:15:31.093Z,14.86
2022-09-12T11:20:59.109Z,15.30
2022-09-12T11:26:20.316Z,15.16
2022-09-12T11:31:25.887Z,15.15
2022-09-12T11:36:37.660Z,14.88
2022-09-12T11:41:48.473Z,15.79
2022-09-12T11:46:52.048Z,16.23
2022-09-12T11:52:13.191Z,15.92
2022-09-12T11:57:28.373Z,16.03
2022-09-12T12:02:40.162Z,15.96
2022-09-12T12:07:45.839Z,15.96
2022-09-12T12:12:49.645Z,15.56
2022-09-12T12:18:29.022Z,15.64
2022-09-12T12:23:35.200Z,15.83
2022-09-12T12:28:50.479Z,16.00
2022-09-12T12:33:55.856Z,15.77
2022-09-12T12:39:00.213Z,15.47
2022-09-12T12:44:41.245Z,14.83
2022-09-12T12:49:52.202Z,14.53
2022-09-12T12:55:00.350Z,14.35
2022-09-12T13:00:29.960Z,14.13
2022-09-12T13:05:43.257Z,14.11
2022-09-12T13:10:50.011Z,14.23
2022-09-12T13:15:53.255Z,14.36
2022-09-12T13:21:17.690Z,14.67
2022-09-12T13:26:28.090Z,14.48
2022-09-12T13:31:31.073Z,15.11
2022-09-12T13:36:53.304Z,14.60
2022-09-12T13:41:56.274Z,14.42
2022-09-12T13:47:03.570Z,14.22
2022-09-12T13:52:09.641Z,14.20
2022-09-12T13:57:33.194Z,13.80
2022-09-12T14:02:37.170Z,13.94
2022-09-12T14:07:46.629Z,13.88
2022-09-12T14:12:50.908Z,13.63
2022-09-12T14:17:57.786Z,13.67
2022-09-12T14:23:17.053Z,13.50
2022-09-12T14:28:23.621Z,13.34
2022-09-12T14:33:26.559Z,13.43
2022-09-12T14:38:36.878Z,13.13
2022-09-12T14:43:52.777Z,12.88
2022-09-12T14:49:01.761Z,13.17
2022-09-12T14:54:04.647Z,13.14
2022-09-12T14:59:37.474Z,13.21
2022-09-12T15:04:42.239Z,13.21
2022-09-12T15:09:47.311Z,13.08
2022-09-12T15:14:50.047Z,13.13
2022-09-12T15:19:52.618Z,12.91
2022-09-12T15:24:57.601Z,12.75
2022-09-12T15:30:00.329Z,12.67
2022-09-12T15:40:21.131Z,12.41
2022-09-12T15:45:27.939Z,12.29
2022-09-12T15:50:31.038Z,12.09
2022-09-12T15:55:34.050Z,12.00
2022-09-12T16:00:36.727Z,11.92
2022-09-12T16:05:39.269Z,11.86
2022-09-12T16:10:43.631Z,11.78
2022-09-12T16:15:46.334Z,11.62
2022-09-12T16:20:53.831Z,11.58
2022-09-12T16:26:02.113Z,11.52
2022-09-12T16:31:06.864Z,11.35
2022-09-12T16:36:13.155Z,11.34
2022-09-12T16:41:17.095Z,11.30
2022-09-12T16:46:24.925Z,11.22
2022-09-12T16:51:36.023Z,11.17
2022-09-12T16:56:39.030Z,11.11
2022-09-12T17:01:41.823Z,10.88
2022-09-12T17:06:45.217Z,10.97
2022-09-12T17:11:49.715Z,11.04
2022-09-12T17:16:52.570Z,11.12
2022-09-12T17:21:56.231Z,11.07
2022-09-12T17:26:59.474Z,11.11
2022-09-12T17:32:02.283Z,11.21
2022-09-12T17:37:06.049Z,11.06
2022-09-12T17:42:08.782Z,11.22
2022-09-12T17:47:11.625Z,11.26
2022-09-12T17:52:14.257Z,11.28
2022-09-12T17:57:16.895Z,11.33
2022-09-12T18:02:19.691Z,11.22
2022-09-12T18:07:22.296Z,11.25
2022-09-12T18:12:25.205Z,11.28
2022-09-12T18:17:27.777Z,11.32
2022-09-12T18:22:30.300Z,11.16
2022-09-12T18:27:32.897Z,11.40
2022-09-12T18:32:35.426Z,11.40
2022-09-12T18:37:40.421Z,11.38
2022-09-12T18:42:42.940Z,11.41
2022-09-12T18:47:45.530Z,11.41
2022-09-12T18:52:48.099Z,11.20
2022-09-12T18:57:50.753Z,11.42
2022-09-12T19:02:53.614Z,11.51
2022-09-12T19:07:56.189Z,11.46
2022-09-12T19:12:59.118Z,11.37
2022-09-12T19:18:01.678Z,11.43
2022-09-12T19:23:04.464Z,11.55
2022-09-12T19:28:07.295Z,11.51
2022-09-12T19:33:09.871Z,11.49
2022-09-12T19:38:13.396Z,11.51
2022-09-12T19:43:15.932Z,11.45
2022-09-12T19:48:19.756Z,11.43
2022-09-12T19:53:22.277Z,11.52
2022-09-12T19:58:25.050Z,11.38
2022-09-12T20:03:27.697Z,11.07
2022-09-12T20:08:30.299Z,11.13
2022-09-12T20:13:33.121Z,11.19
2022-09-12T20:18:36.343Z,11.16
2022-09-12T20:23:40.907Z,11.25
2022-09-12T20:28:43.545Z,11.23
2022-09-12T20:33:51.122Z,11.13
2022-09-12T20:39:02.837Z,11.15
2022-09-12T20:44:05.633Z,11.02
2022-09-12T20:49:11.162Z,11.06
2022-09-12T20:54:13.858Z,10.98
2022-09-12T20:59:16.521Z,11.13
2022-09-12T21:04:19.282Z,11.04
2022-09-12T21:09:21.930Z,10.96
2022-09-12T21:14:24.516Z,10.86
2022-09-12T21:19:27.071Z,11.01
2022-09-12T21:24:30.377Z,10.85
2022-09-12T21:29:33.023Z,10.97
2022-09-12T21:34:35.806Z,10.96
2022-09-12T21:39:38.377Z,10.74
2022-09-12T21:44:41.043Z,10.83
2022-09-12T21:49:43.723Z,10.78
2022-09-12T21:54:46.273Z,10.73
2022-09-12T21:59:48.854Z,10.54
2022-09-12T22:04:51.422Z,10.42
2022-09-12T22:09:54.059Z,10.47
2022-09-12T22:14:57.155Z,10.44
2022-09-12T22:19:59.899Z,10.33
2022-09-12T22:25:02.454Z,10.33
2022-09-12T22:30:07.700Z,10.29
2022-09-12T22:35:10.305Z,10.25
2022-09-12T22:40:12.991Z,10.36
2022-09-12T22:45:15.821Z,10.36
2022-09-12T22:50:18.388Z,10.30
2022-09-12T22:55:21.006Z,10.29
2022-09-12T23:00:23.880Z,10.28
2022-09-12T23:05:26.543Z,10.13
2022-09-12T23:10:29.149Z,9.96
2022-09-12T23:15:32.648Z,9.99
2022-09-12T23:20:35.209Z,9.94
2022-09-12T23:25:37.918Z,9.94
2022-09-12T23:30:40.585Z,9.85
2022-09-12T23:35:44.298Z,9.69
2022-09-12T23:40:46.826Z,9.81
2022-09-12T23:45:49.578Z,9.80
2022-09-12T23:50:52.446Z,9.71
2022-09-12T23:55:55.111Z,9.80
